Avalon, California
Current Conditions -  °F | °C
As of 10:51 AM on Tuesday 21 Oct 2014 (Local Time) from KAVX Reporting Station
Clear Clear  
Wind Chill: 21°   Ceiling: Unl
Heat Index: 21°   Visibility: 10mi
Dew Point: 12°   Wind: 5mph
Humidity: 57%   Direction: 360°N
Pressure: 29.96"   Gusts: NA
Location:  33.34°N, 118.33°W
Report Text: KAVX 211751Z AUTO 36004KT 10SM CLR 21/12 A2996 RMK AO2 SLP126 T02110122 10211 20144 50005
Loading
Personal Weather Stations






























Interactive Weather Map New forecast layout! Learn more

10-Day Weather Forecast

Advertisements
Track Severe Weather on mobile